createdAt,value
2017-12-26T00:01:37.736Z,95.30
2017-12-26T00:03:38.726Z,95.20
2017-12-26T00:05:39.687Z,95.30
2017-12-26T00:07:41.204Z,95.20
2017-12-26T00:09:42.210Z,95.80
2017-12-26T00:11:43.182Z,95.90
2017-12-26T00:13:44.215Z,94.90
2017-12-26T00:15:45.334Z,94.40
2017-12-26T00:17:47.069Z,94.50
2017-12-26T00:19:48.803Z,95.10
2017-12-26T00:21:49.928Z,95.20
2017-12-26T00:23:51.020Z,94.00
2017-12-26T00:25:51.983Z,93.90
2017-12-26T00:27:52.919Z,94.50
2017-12-26T00:29:53.985Z,94.10
2017-12-26T00:31:55.022Z,94.50
2017-12-26T00:33:56.751Z,95.00
2017-12-26T00:35:57.830Z,95.00
2017-12-26T00:37:59.590Z,95.20
2017-12-26T00:40:00.647Z,95.20
2017-12-26T00:42:02.431Z,95.00
2017-12-26T00:44:03.366Z,95.00
2017-12-26T00:46:05.223Z,95.90
2017-12-26T00:48:06.320Z,95.90
2017-12-26T00:50:07.294Z,95.30
2017-12-26T00:52:08.376Z,94.90
2017-12-26T00:54:10.251Z,94.60
2017-12-26T00:56:11.296Z,94.70
2017-12-26T00:58:13.003Z,94.30
2017-12-26T01:00:14.084Z,94.30
2017-12-26T01:02:15.083Z,94.40
2017-12-26T01:04:16.119Z,94.00
2017-12-26T01:06:17.234Z,94.80
2017-12-26T01:08:18.190Z,93.90
2017-12-26T01:10:19.276Z,93.60
2017-12-26T01:12:20.275Z,93.60
2017-12-26T01:14:22.046Z,94.60
2017-12-26T01:16:23.035Z,94.60
2017-12-26T01:18:23.999Z,93.50
2017-12-26T01:20:24.987Z,94.30
2017-12-26T01:22:25.967Z,94.60
2017-12-26T01:24:26.939Z,95.10
2017-12-26T01:26:27.903Z,95.00
2017-12-26T01:28:28.859Z,95.50
2017-12-26T01:30:29.827Z,95.60
2017-12-26T01:32:31.574Z,95.70
2017-12-26T01:34:33.446Z,95.60
2017-12-26T01:36:34.721Z,95.60
2017-12-26T01:38:35.944Z,95.80
2017-12-26T01:40:36.888Z,95.90
2017-12-26T01:42:37.860Z,96.00
2017-12-26T01:44:38.805Z,96.00
2017-12-26T01:46:39.785Z,96.50
2017-12-26T01:48:40.840Z,95.80
2017-12-26T01:50:41.948Z,96.30
2017-12-26T01:52:42.987Z,96.00
2017-12-26T01:54:44.000Z,95.90
2017-12-26T01:56:44.990Z,96.50
2017-12-26T01:58:46.691Z,96.90
2017-12-26T02:00:47.670Z,96.90
2017-12-26T02:02:48.719Z,96.50
2017-12-26T02:04:49.669Z,96.00
2017-12-26T02:06:51.441Z,97.00
2017-12-26T02:08:53.148Z,96.70
2017-12-26T02:10:54.156Z,96.70
2017-12-26T02:12:55.887Z,96.50
2017-12-26T02:14:56.931Z,96.50
2017-12-26T02:16:57.894Z,96.90
2017-12-26T02:18:58.887Z,96.50
2017-12-26T02:21:00.212Z,96.30
2017-12-26T02:23:02.018Z,95.60
2017-12-26T02:25:03.147Z,95.60
2017-12-26T02:27:04.183Z,95.90
2017-12-26T02:29:05.198Z,95.90
2017-12-26T02:31:06.147Z,96.20
2017-12-26T02:33:07.205Z,96.80
2017-12-26T02:35:08.928Z,96.20
2017-12-26T02:37:09.916Z,96.20
2017-12-26T02:39:10.890Z,96.80
2017-12-26T02:41:11.929Z,96.00
2017-12-26T02:43:12.871Z,96.40
2017-12-26T02:45:13.860Z,96.60
2017-12-26T02:47:14.826Z,95.80
2017-12-26T02:49:15.878Z,96.70
2017-12-26T02:51:16.908Z,96.70
2017-12-26T02:53:17.926Z,96.20
2017-12-26T02:55:18.910Z,96.00
2017-12-26T02:57:19.886Z,95.90
2017-12-26T02:59:21.623Z,95.90
2017-12-26T03:01:22.617Z,95.70
2017-12-26T03:03:23.644Z,95.50
2017-12-26T03:05:25.454Z,95.80
2017-12-26T03:07:26.394Z,95.70
2017-12-26T03:09:27.326Z,96.20
2017-12-26T03:11:28.443Z,95.90
2017-12-26T03:13:29.412Z,95.80
2017-12-26T03:15:31.131Z,96.20
2017-12-26T03:17:32.168Z,96.10
2017-12-26T03:19:33.163Z,95.60
2017-12-26T03:21:34.234Z,96.20
2017-12-26T03:23:35.231Z,96.00
2017-12-26T03:25:36.205Z,95.80
2017-12-26T03:27:37.199Z,96.20
2017-12-26T03:29:38.191Z,96.10
2017-12-26T03:31:39.886Z,96.40
2017-12-26T03:33:40.879Z,96.40
2017-12-26T03:35:41.971Z,96.40
2017-12-26T03:37:42.960Z,96.40
2017-12-26T03:39:43.942Z,96.50
2017-12-26T03:41:45.649Z,96.50
2017-12-26T03:43:46.614Z,96.40
2017-12-26T03:45:47.611Z,96.60
2017-12-26T03:47:48.636Z,97.00
2017-12-26T03:49:49.590Z,97.10
2017-12-26T03:51:51.359Z,97.10
2017-12-26T03:53:52.343Z,97.10
2017-12-26T03:55:53.326Z,97.60
2017-12-26T03:57:54.300Z,97.60
2017-12-26T03:59:55.278Z,97.50
2017-12-26T04:01:56.234Z,97.40
2017-12-26T04:03:57.226Z,97.30
2017-12-26T04:05:58.918Z,97.10
2017-12-26T04:07:59.922Z,97.20
2017-12-26T04:10:00.871Z,97.50
2017-12-26T04:12:02.604Z,97.80
2017-12-26T04:14:03.580Z,97.80
2017-12-26T04:16:04.571Z,98.00
2017-12-26T04:18:05.612Z,98.20
2017-12-26T04:20:06.584Z,98.20
2017-12-26T04:22:07.614Z,98.40
2017-12-26T04:24:08.648Z,98.50
2017-12-26T04:26:09.655Z,98.60
2017-12-26T04:28:10.652Z,98.80
2017-12-26T04:30:11.784Z,98.80
2017-12-26T04:32:12.791Z,98.70
2017-12-26T04:34:13.835Z,98.60
2017-12-26T04:36:14.819Z,98.70
2017-12-26T04:38:16.527Z,98.80
2017-12-26T04:40:17.474Z,98.80
2017-12-26T04:42:18.542Z,98.90
2017-12-26T04:44:19.526Z,99.00
2017-12-26T04:46:20.521Z,98.90
2017-12-26T04:48:21.514Z,98.90
2017-12-26T04:50:22.563Z,98.80
2017-12-26T04:52:23.549Z,98.80
2017-12-26T04:54:24.506Z,98.80
2017-12-26T04:56:25.523Z,98.90
2017-12-26T04:58:26.502Z,99.00
2017-12-26T05:00:27.539Z,99.00
2017-12-26T05:02:28.550Z,99.30
2017-12-26T05:04:29.771Z,99.20
2017-12-26T05:06:30.730Z,99.40
2017-12-26T05:08:32.500Z,99.70
2017-12-26T05:10:34.201Z,99.90
2017-12-26T05:12:35.179Z,99.90
2017-12-26T05:14:36.326Z,99.90
2017-12-26T05:16:37.286Z,99.90
2017-12-26T05:18:38.308Z,99.90
2017-12-26T05:20:39.353Z,99.90
2017-12-26T05:22:40.358Z,99.90
2017-12-26T05:24:41.383Z,99.90
2017-12-26T05:26:42.324Z,99.90
2017-12-26T05:28:43.311Z,99.90
2017-12-26T05:30:44.398Z,99.90
2017-12-26T05:32:45.451Z,99.90
2017-12-26T05:34:46.402Z,99.90
2017-12-26T05:36:47.339Z,99.90
2017-12-26T05:38:48.367Z,99.90
2017-12-26T05:40:49.407Z,99.90
2017-12-26T05:42:50.396Z,99.90
2017-12-26T05:44:51.435Z,99.50
2017-12-26T05:46:52.459Z,99.00
2017-12-26T05:48:53.451Z,98.60
2017-12-26T05:50:55.305Z,98.40
2017-12-26T05:52:57.001Z,98.30
2017-12-26T05:54:57.991Z,98.30
2017-12-26T05:56:59.034Z,98.20
2017-12-26T05:59:00.034Z,98.20
2017-12-26T06:01:01.009Z,97.50
2017-12-26T06:03:01.987Z,97.50
2017-12-26T06:05:02.948Z,97.50
2017-12-26T06:07:03.972Z,97.40
2017-12-26T06:09:05.777Z,97.00
2017-12-26T06:11:06.734Z,97.00
2017-12-26T06:13:08.592Z,96.70
2017-12-26T06:15:10.387Z,97.20
2017-12-26T06:17:11.406Z,97.20
2017-12-26T06:19:12.374Z,97.00
2017-12-26T06:21:13.357Z,97.50
2017-12-26T06:23:14.394Z,97.30
2017-12-26T06:25:15.388Z,97.40
2017-12-26T06:27:17.115Z,97.50
2017-12-26T06:29:18.071Z,97.50
2017-12-26T06:31:19.010Z,97.00
2017-12-26T06:33:19.994Z,97.20
2017-12-26T06:35:21.706Z,96.90
2017-12-26T06:37:22.712Z,96.90
2017-12-26T06:39:23.703Z,96.70
2017-12-26T06:41:24.687Z,96.50
2017-12-26T06:43:25.646Z,96.60
2017-12-26T06:45:26.576Z,96.60
2017-12-26T06:47:27.503Z,96.70
2017-12-26T06:49:28.458Z,97.00
2017-12-26T06:51:29.466Z,96.80
2017-12-26T06:53:30.497Z,96.90
2017-12-26T06:55:31.509Z,96.60
2017-12-26T06:57:33.195Z,96.90
2017-12-26T06:59:34.164Z,96.90
2017-12-26T07:01:35.106Z,97.20
2017-12-26T07:03:36.055Z,97.00
2017-12-26T07:05:37.083Z,97.80
2017-12-26T07:07:38.068Z,97.50
2017-12-26T07:09:39.044Z,97.60
2017-12-26T07:11:40.005Z,97.50
2017-12-26T07:13:41.829Z,97.50
2017-12-26T07:15:42.726Z,97.50
2017-12-26T07:17:43.688Z,97.50
2017-12-26T07:19:45.462Z,97.60
2017-12-26T07:24:27.014Z,98.00
2017-12-26T07:26:27.996Z,98.00
2017-12-26T07:28:29.021Z,98.10
2017-12-26T07:30:29.987Z,98.50
2017-12-26T07:32:30.980Z,98.10
2017-12-26T07:34:31.996Z,98.10
2017-12-26T07:36:32.941Z,98.10
2017-12-26T07:38:34.705Z,98.00
2017-12-26T07:40:35.692Z,98.00
2017-12-26T07:42:36.686Z,98.00
2017-12-26T07:44:38.737Z,98.10
2017-12-26T07:46:39.742Z,98.10
2017-12-26T07:48:40.755Z,98.10
2017-12-26T07:50:41.790Z,97.70
2017-12-26T07:52:42.731Z,97.70
2017-12-26T07:54:43.768Z,97.70
2017-12-26T07:56:45.530Z,96.40
2017-12-26T07:58:47.282Z,97.00
2017-12-26T08:00:48.275Z,97.00
2017-12-26T08:02:49.255Z,96.60
2017-12-26T08:04:50.250Z,96.60
2017-12-26T08:06:51.963Z,97.00
2017-12-26T08:08:52.978Z,97.00
2017-12-26T08:10:53.938Z,96.00
2017-12-26T08:12:54.975Z,95.60
2017-12-26T08:14:55.994Z,95.60
2017-12-26T08:16:56.998Z,95.80
2017-12-26T08:18:57.958Z,95.50
2017-12-26T08:20:58.936Z,96.60
2017-12-26T08:23:00.694Z,96.00
2017-12-26T08:25:01.687Z,95.70
2017-12-26T08:27:02.655Z,96.00
2017-12-26T08:29:03.658Z,95.20
2017-12-26T08:31:04.704Z,96.20
2017-12-26T08:33:05.684Z,95.40
2017-12-26T08:35:06.667Z,95.80
2017-12-26T08:37:07.683Z,95.50
2017-12-26T08:39:08.702Z,95.60
2017-12-26T08:41:09.777Z,96.70
2017-12-26T08:43:10.748Z,96.30
2017-12-26T08:45:11.863Z,95.50
2017-12-26T08:47:12.826Z,97.40
2017-12-26T08:49:13.861Z,96.90
2017-12-26T08:51:14.913Z,97.00
2017-12-26T08:53:15.883Z,98.50
2017-12-26T08:55:16.897Z,99.20
2017-12-26T08:57:17.912Z,98.30
2017-12-26T08:59:18.949Z,99.20
2017-12-26T09:01:20.721Z,99.80
2017-12-26T09:03:21.741Z,99.80
2017-12-26T09:05:22.761Z,99.90
2017-12-26T09:07:23.705Z,99.90
2017-12-26T09:09:24.732Z,99.90
2017-12-26T09:11:25.906Z,99.90
2017-12-26T09:13:26.858Z,99.90
2017-12-26T09:15:27.800Z,99.90
2017-12-26T09:17:28.786Z,99.90
2017-12-26T09:19:30.487Z,99.90
2017-12-26T09:21:31.466Z,99.90
2017-12-26T09:23:32.430Z,99.90
2017-12-26T09:25:33.399Z,99.90
2017-12-26T09:27:35.188Z,99.90
2017-12-26T09:29:36.089Z,99.90
2017-12-26T09:31:37.027Z,99.90
2017-12-26T09:33:38.016Z,99.90
2017-12-26T09:35:38.956Z,99.90
2017-12-26T09:37:39.896Z,99.90
2017-12-26T09:39:41.585Z,99.90
2017-12-26T09:41:42.563Z,99.90
2017-12-26T09:43:43.506Z,99.90
2017-12-26T09:45:44.454Z,99.90
2017-12-26T09:47:45.405Z,99.90
2017-12-26T09:49:46.382Z,99.90
2017-12-26T09:51:48.132Z,99.90
2017-12-26T09:53:49.862Z,99.90
2017-12-26T09:55:50.826Z,99.90
2017-12-26T09:57:51.787Z,99.90
2017-12-26T09:59:52.771Z,99.90
2017-12-26T10:01:53.786Z,99.90
2017-12-26T10:03:54.752Z,99.90
2017-12-26T10:05:55.704Z,99.90
2017-12-26T10:07:56.650Z,99.90
2017-12-26T10:09:57.717Z,99.90
2017-12-26T10:11:58.692Z,99.90
2017-12-26T10:14:00.034Z,99.90
2017-12-26T10:16:01.004Z,99.90
2017-12-26T10:18:01.987Z,99.90
2017-12-26T10:20:02.944Z,99.90
2017-12-26T10:22:03.901Z,99.90
2017-12-26T10:24:04.882Z,99.90
2017-12-26T10:26:05.907Z,99.90
2017-12-26T10:28:06.900Z,99.90
2017-12-26T10:30:07.901Z,99.90
2017-12-26T10:32:08.882Z,99.90
2017-12-26T10:34:09.943Z,99.90
2017-12-26T10:36:11.684Z,99.90
2017-12-26T10:38:12.700Z,99.90
2017-12-26T10:40:13.784Z,99.90
2017-12-26T10:42:15.548Z,99.90
2017-12-26T10:44:16.572Z,99.90
2017-12-26T10:46:17.558Z,99.90
2017-12-26T10:48:19.302Z,99.90
2017-12-26T10:50:21.086Z,99.90
2017-12-26T10:52:22.832Z,99.90
2017-12-26T10:54:23.848Z,99.90
2017-12-26T10:56:24.818Z,99.90
2017-12-26T10:58:25.804Z,99.90
2017-12-26T11:00:27.208Z,99.90
2017-12-26T11:02:28.231Z,99.90
2017-12-26T11:04:29.207Z,99.90
2017-12-26T11:06:30.266Z,99.90
2017-12-26T11:08:31.245Z,99.90
2017-12-26T11:10:32.368Z,99.90
2017-12-26T11:12:33.364Z,99.90
2017-12-26T11:14:34.361Z,99.90
2017-12-26T11:16:35.359Z,99.90
2017-12-26T11:18:36.429Z,99.90
2017-12-26T11:20:37.523Z,99.90
2017-12-26T11:22:38.530Z,99.90
2017-12-26T11:24:39.558Z,99.90
2017-12-26T11:26:40.841Z,99.90
2017-12-26T11:28:42.007Z,99.90
2017-12-26T11:30:44.913Z,99.90
2017-12-26T11:32:45.924Z,99.90
2017-12-26T11:34:46.907Z,99.90
2017-12-26T11:36:48.647Z,99.90
2017-12-26T11:38:49.640Z,99.90
2017-12-26T11:40:50.740Z,99.90
2017-12-26T11:42:51.736Z,99.90
2017-12-26T11:44:52.717Z,99.90
2017-12-26T11:46:53.694Z,99.90
2017-12-26T11:48:55.447Z,99.90
2017-12-26T11:50:57.236Z,99.90
2017-12-26T11:52:58.302Z,99.90
2017-12-26T11:54:59.312Z,99.90
2017-12-26T11:57:00.309Z,99.90
2017-12-26T11:59:01.315Z,99.90
2017-12-26T12:01:03.139Z,99.90
2017-12-26T12:03:04.123Z,99.90
2017-12-26T12:05:05.169Z,99.90
2017-12-26T12:07:06.160Z,99.90
2017-12-26T12:09:07.123Z,99.90
2017-12-26T12:11:08.141Z,99.90
2017-12-26T12:13:09.146Z,99.90
2017-12-26T12:15:10.187Z,99.90
2017-12-26T12:17:12.006Z,99.90
2017-12-26T12:19:12.996Z,99.90
2017-12-26T12:21:14.113Z,99.90
2017-12-26T12:23:15.076Z,99.90
2017-12-26T12:25:16.556Z,99.90
2017-12-26T12:27:17.528Z,99.90
2017-12-26T12:29:19.281Z,99.90
2017-12-26T12:31:21.041Z,99.70
2017-12-26T12:33:22.089Z,99.90
2017-12-26T12:35:23.826Z,99.90
2017-12-26T12:37:24.812Z,99.90
2017-12-26T12:39:26.520Z,99.70
2017-12-26T12:41:27.507Z,99.60
2017-12-26T12:43:28.684Z,99.30
2017-12-26T12:45:29.805Z,99.80
2017-12-26T12:47:30.758Z,99.30
2017-12-26T12:49:32.472Z,99.60
2017-12-26T12:51:33.504Z,99.40
2017-12-26T12:53:34.451Z,99.50
2017-12-26T12:55:35.468Z,99.90
2017-12-26T12:57:37.201Z,97.50
2017-12-26T12:59:39.003Z,98.00
2017-12-26T13:01:40.004Z,98.00
2017-12-26T13:03:41.072Z,98.80
2017-12-26T13:05:42.068Z,98.90
2017-12-26T13:07:43.125Z,98.00
2017-12-26T13:09:48.067Z,98.00
2017-12-26T13:11:52.053Z,98.50
2017-12-26T13:13:53.044Z,97.10
2017-12-26T13:15:54.045Z,97.10
2017-12-26T13:17:56.222Z,95.70
2017-12-26T13:19:57.289Z,96.00
2017-12-26T13:21:58.259Z,93.20
2017-12-26T13:23:59.232Z,93.60
2017-12-26T13:26:00.190Z,91.00
2017-12-26T13:28:01.904Z,89.00
2017-12-26T13:30:02.965Z,89.40
2017-12-26T13:32:04.053Z,86.70
2017-12-26T13:34:05.762Z,79.20
2017-12-26T13:36:06.754Z,79.10
2017-12-26T13:38:09.609Z,79.70
2017-12-26T13:40:12.167Z,78.00
2017-12-26T13:42:13.741Z,77.90
2017-12-26T13:44:14.833Z,78.20
2017-12-26T13:46:15.820Z,83.10
2017-12-26T13:48:17.198Z,87.30
2017-12-26T13:50:18.341Z,88.90
2017-12-26T13:52:19.348Z,88.60
2017-12-26T13:54:21.079Z,89.10
2017-12-26T13:56:22.138Z,89.20
2017-12-26T13:58:23.088Z,89.80
2017-12-26T14:00:24.126Z,90.70
2017-12-26T14:02:25.096Z,90.50
2017-12-26T14:04:26.800Z,91.00
2017-12-26T14:06:27.771Z,90.90
2017-12-26T14:08:28.752Z,90.60
2017-12-26T14:10:30.561Z,92.90
2017-12-26T14:12:31.804Z,92.70
2017-12-26T14:14:32.770Z,91.50
2017-12-26T14:16:35.694Z,91.80
2017-12-26T14:21:09.620Z,91.70
2017-12-26T14:23:10.773Z,92.50
2017-12-26T14:25:11.854Z,92.80
2017-12-26T14:27:13.644Z,92.50
2017-12-26T14:29:14.619Z,92.50
2017-12-26T14:31:15.583Z,92.80
2017-12-26T14:33:16.721Z,93.50
2017-12-26T14:35:17.703Z,93.50
2017-12-26T14:37:19.399Z,93.10
2017-12-26T14:39:20.475Z,92.60
2017-12-26T14:41:21.470Z,92.60
2017-12-26T14:43:23.194Z,93.70
2017-12-26T14:45:24.252Z,93.60
2017-12-26T14:47:25.220Z,94.50
2017-12-26T14:49:26.196Z,93.80
2017-12-26T14:51:27.198Z,94.50
2017-12-26T14:53:28.363Z,93.80
2017-12-26T14:55:29.375Z,94.30
2017-12-26T14:57:30.383Z,94.60
2017-12-26T14:59:31.352Z,94.20
2017-12-26T15:01:32.426Z,95.30
2017-12-26T15:03:33.464Z,94.40
2017-12-26T15:05:34.516Z,94.50
2017-12-26T15:07:35.455Z,94.60
2017-12-26T15:09:36.500Z,93.80
2017-12-26T15:11:37.474Z,93.10
2017-12-26T15:13:44.697Z,93.90
2017-12-26T15:15:47.370Z,94.90
2017-12-26T15:17:48.359Z,95.30
2017-12-26T15:19:49.394Z,94.90
2017-12-26T15:21:50.500Z,94.90
2017-12-26T15:23:51.608Z,94.80
2017-12-26T15:25:52.742Z,94.10
2017-12-26T15:27:53.764Z,94.50
2017-12-26T15:29:54.768Z,94.30
2017-12-26T15:31:56.212Z,94.20
2017-12-26T15:33:57.338Z,93.70
2017-12-26T15:35:59.190Z,94.70
2017-12-26T15:38:00.202Z,94.70
2017-12-26T15:40:01.202Z,94.20
2017-12-26T15:42:02.216Z,93.70
2017-12-26T15:44:05.555Z,94.40
2017-12-26T15:46:06.703Z,94.30
2017-12-26T15:48:07.684Z,93.10
2017-12-26T15:50:08.622Z,94.30
2017-12-26T15:52:09.596Z,93.70
2017-12-26T15:54:10.779Z,94.10
2017-12-26T15:56:11.726Z,94.20
2017-12-26T15:58:13.632Z,93.70
2017-12-26T16:00:15.523Z,94.30
2017-12-26T16:02:16.459Z,93.70
2017-12-26T16:04:17.448Z,93.60
2017-12-26T16:06:18.448Z,93.90
2017-12-26T16:08:19.462Z,93.60
2017-12-26T16:10:20.531Z,93.70
2017-12-26T16:12:21.644Z,94.40
2017-12-26T16:14:22.627Z,94.50
2017-12-26T16:16:25.626Z,94.40
2017-12-26T16:18:26.601Z,94.60
2017-12-26T16:20:27.875Z,94.80
2017-12-26T16:22:28.975Z,95.20
2017-12-26T16:24:30.027Z,95.20
2017-12-26T16:26:31.152Z,95.50
2017-12-26T16:28:32.168Z,94.80
2017-12-26T16:36:15.849Z,96.20
2017-12-26T16:38:24.666Z,96.50
2017-12-26T16:40:46.744Z,95.50
2017-12-26T16:42:48.957Z,95.90
2017-12-26T16:44:50.144Z,95.70
2017-12-26T16:46:51.912Z,95.20
2017-12-26T16:48:53.768Z,95.70
2017-12-26T16:50:54.815Z,95.20
2017-12-26T16:52:55.999Z,96.20
2017-12-26T16:54:58.264Z,95.90
2017-12-26T16:56:59.950Z,94.80
2017-12-26T16:59:00.928Z,94.90
2017-12-26T17:01:01.869Z,94.80
2017-12-26T17:03:02.819Z,95.40
2017-12-26T17:05:07.930Z,95.40
2017-12-26T17:07:09.069Z,95.00
2017-12-26T17:09:10.042Z,95.00
2017-12-26T17:11:11.019Z,94.60
2017-12-26T17:13:12.075Z,94.80
2017-12-26T17:15:13.055Z,95.70
2017-12-26T17:17:14.876Z,95.70
2017-12-26T17:19:15.910Z,95.70
2017-12-26T17:21:17.775Z,95.50
2017-12-26T17:23:18.732Z,95.40
2017-12-26T17:25:19.752Z,94.90
2017-12-26T17:27:20.746Z,94.90
2017-12-26T17:29:22.473Z,94.90
2017-12-26T17:31:23.491Z,94.90
2017-12-26T17:33:24.482Z,95.80
2017-12-26T17:35:25.454Z,95.90
2017-12-26T17:37:26.399Z,96.50
2017-12-26T17:39:28.212Z,96.60
2017-12-26T17:41:29.193Z,96.20
2017-12-26T17:43:30.209Z,96.60
2017-12-26T17:45:31.204Z,97.00
2017-12-26T17:47:32.272Z,96.40
2017-12-26T17:49:33.400Z,96.70
2017-12-26T17:51:34.430Z,97.30
2017-12-26T17:53:35.516Z,97.00
2017-12-26T17:55:37.305Z,96.40
2017-12-26T17:57:38.325Z,96.40
2017-12-26T17:59:39.312Z,96.80
2017-12-26T18:01:40.269Z,96.90
2017-12-26T18:03:41.246Z,96.50
2017-12-26T18:05:46.648Z,97.10
2017-12-26T18:07:49.461Z,96.90
2017-12-26T18:09:50.460Z,97.00
2017-12-26T18:11:51.423Z,97.00
2017-12-26T18:13:52.440Z,97.10
2017-12-26T18:15:54.208Z,96.50
2017-12-26T18:17:56.652Z,96.40
2017-12-26T18:19:59.955Z,96.40
2017-12-26T18:22:01.060Z,96.90
2017-12-26T18:24:02.044Z,96.50
2017-12-26T18:26:03.042Z,97.00
2017-12-26T18:28:04.128Z,96.90
2017-12-26T18:30:05.141Z,97.30
2017-12-26T18:32:06.118Z,96.20
2017-12-26T18:34:07.099Z,96.50
2017-12-26T18:36:08.332Z,94.90
2017-12-26T18:38:09.280Z,96.70
2017-12-26T18:40:10.722Z,95.90
2017-12-26T18:42:11.691Z,96.10
2017-12-26T18:44:12.746Z,96.60
2017-12-26T18:46:14.568Z,95.60
2017-12-26T18:48:15.514Z,95.60
2017-12-26T18:50:16.471Z,96.70
2017-12-26T18:52:17.460Z,96.30
2017-12-26T18:54:18.416Z,95.90
2017-12-26T18:56:20.128Z,95.60
2017-12-26T18:58:21.107Z,95.70
2017-12-26T19:00:22.052Z,96.00
2017-12-26T19:02:22.982Z,95.90
2017-12-26T19:04:24.209Z,95.80
2017-12-26T19:06:25.186Z,94.90
2017-12-26T19:08:26.310Z,95.90
2017-12-26T19:10:28.983Z,95.50
2017-12-26T19:12:29.921Z,94.90
2017-12-26T19:14:31.162Z,95.00
2017-12-26T19:16:32.170Z,95.60
2017-12-26T19:18:33.158Z,95.70
2017-12-26T19:20:34.103Z,95.80
2017-12-26T19:22:35.115Z,95.40
2017-12-26T19:24:36.056Z,95.60
2017-12-26T19:26:37.037Z,94.90
2017-12-26T19:28:38.771Z,95.80
2017-12-26T19:30:39.766Z,95.80
2017-12-26T19:32:41.424Z,95.90
2017-12-26T19:34:42.374Z,96.00
2017-12-26T19:36:43.466Z,96.10
2017-12-26T19:38:44.489Z,96.70
2017-12-26T19:40:45.490Z,96.20
2017-12-26T19:42:47.161Z,96.40
2017-12-26T19:44:48.091Z,96.40
2017-12-26T19:46:49.032Z,97.20
2017-12-26T19:48:50.282Z,97.00
2017-12-26T19:50:51.986Z,96.30
2017-12-26T19:52:53.035Z,96.30
2017-12-26T19:54:54.077Z,96.90
2017-12-26T19:56:55.183Z,97.20
2017-12-26T19:58:56.152Z,96.80
2017-12-26T20:00:57.851Z,96.20
2017-12-26T20:02:58.834Z,96.20
2017-12-26T20:04:59.945Z,96.70
2017-12-26T20:07:00.934Z,96.40
2017-12-26T20:09:01.893Z,96.30
2017-12-26T20:11:03.761Z,96.60
2017-12-26T20:13:05.551Z,96.40
2017-12-26T20:15:06.494Z,96.40
2017-12-26T20:17:07.471Z,96.90
2017-12-26T20:19:08.492Z,97.30
2017-12-26T20:21:09.719Z,97.20
2017-12-26T20:23:11.058Z,97.30
2017-12-26T20:25:12.244Z,97.20
2017-12-26T20:27:13.281Z,95.70
2017-12-26T20:29:19.074Z,96.70
2017-12-26T20:31:20.248Z,96.50
2017-12-26T20:33:21.474Z,96.50
2017-12-26T20:35:22.542Z,96.40
2017-12-26T20:37:23.627Z,96.80
2017-12-26T20:39:25.885Z,96.50
2017-12-26T20:41:27.197Z,97.20
2017-12-26T20:43:28.514Z,97.30
2017-12-26T20:45:31.199Z,97.30
2017-12-26T20:47:32.231Z,97.30
2017-12-26T20:49:33.356Z,97.80
2017-12-26T20:51:34.642Z,98.30
2017-12-26T20:53:36.371Z,99.00
2017-12-26T20:55:37.452Z,99.00
2017-12-26T20:57:38.454Z,99.10
2017-12-26T20:59:39.414Z,99.30
2017-12-26T21:01:40.400Z,99.10
2017-12-26T21:03:42.177Z,97.80
2017-12-26T21:05:43.929Z,98.00
2017-12-26T21:07:44.899Z,98.00
2017-12-26T21:09:45.949Z,97.90
2017-12-26T21:11:46.930Z,97.60
2017-12-26T21:13:51.034Z,97.60
2017-12-26T21:15:52.024Z,97.60
2017-12-26T21:17:53.167Z,97.20
2017-12-26T21:19:55.087Z,97.20
2017-12-26T21:21:56.065Z,97.10
2017-12-26T21:23:57.066Z,96.90
2017-12-26T21:25:58.039Z,96.90
2017-12-26T21:27:59.013Z,95.90
2017-12-26T21:29:59.994Z,95.90
2017-12-26T21:32:01.739Z,95.80
2017-12-26T21:34:02.755Z,95.80
2017-12-26T21:36:03.725Z,96.20
2017-12-26T21:38:04.832Z,96.30
2017-12-26T21:40:05.820Z,95.70
2017-12-26T21:42:06.766Z,96.00
2017-12-26T21:44:07.735Z,95.80
2017-12-26T21:46:09.512Z,95.50
2017-12-26T21:48:10.501Z,95.50
2017-12-26T21:50:11.487Z,95.20
2017-12-26T21:52:13.285Z,94.90
2017-12-26T21:54:14.313Z,94.90
2017-12-26T21:56:15.286Z,94.50
2017-12-26T21:58:16.226Z,95.00
2017-12-26T22:00:17.207Z,94.60
2017-12-26T22:02:18.245Z,95.00
2017-12-26T22:04:19.235Z,95.00
2017-12-26T22:06:20.951Z,95.60
2017-12-26T22:08:22.183Z,95.30
2017-12-26T22:10:23.179Z,95.30
2017-12-26T22:12:24.135Z,95.00
2017-12-26T22:14:25.831Z,96.10
2017-12-26T22:16:26.801Z,96.40
2017-12-26T22:18:27.776Z,96.20
2017-12-26T22:20:28.986Z,96.70
2017-12-26T22:22:29.988Z,96.50
2017-12-26T22:24:31.671Z,96.00
2017-12-26T22:26:32.863Z,96.10
2017-12-26T22:28:36.509Z,96.70
2017-12-26T22:30:38.243Z,95.70
2017-12-26T22:32:39.425Z,95.70
2017-12-26T22:34:41.237Z,95.40
2017-12-26T22:36:42.190Z,95.40
2017-12-26T22:38:43.190Z,95.60
2017-12-26T22:40:44.894Z,95.70
2017-12-26T22:42:45.851Z,95.80
2017-12-26T22:44:46.822Z,95.90
2017-12-26T22:46:47.790Z,95.80
2017-12-26T22:48:49.602Z,95.80
2017-12-26T22:50:50.605Z,95.80
2017-12-26T22:52:52.316Z,96.00
2017-12-26T22:54:53.340Z,95.90
2017-12-26T22:56:54.309Z,96.10
2017-12-26T22:58:55.332Z,96.30
2017-12-26T23:00:56.445Z,97.00
2017-12-26T23:02:58.682Z,97.50
2017-12-26T23:04:59.709Z,97.50
2017-12-26T23:07:00.732Z,97.90
2017-12-26T23:09:01.716Z,97.50
2017-12-26T23:11:02.715Z,97.50
2017-12-26T23:13:04.456Z,97.40
2017-12-26T23:15:11.526Z,97.40
2017-12-26T23:17:21.541Z,97.70
2017-12-26T23:19:22.526Z,98.10
2017-12-26T23:21:23.519Z,98.40
2017-12-26T23:23:30.752Z,98.60
2017-12-26T23:25:37.777Z,98.90
2017-12-26T23:27:51.698Z,99.20
2017-12-26T23:29:58.698Z,99.50
2017-12-26T23:32:05.945Z,99.70
2017-12-26T23:34:13.002Z,99.90
2017-12-26T23:36:20.011Z,99.90
2017-12-26T23:38:28.188Z,99.90
2017-12-26T23:40:35.174Z,99.90
2017-12-26T23:42:42.174Z,99.90
2017-12-26T23:45:03.027Z,99.90
2017-12-26T23:47:10.192Z,99.90
2017-12-26T23:49:17.340Z,99.90
2017-12-26T23:51:24.375Z,99.90
2017-12-26T23:53:32.194Z,99.90
2017-12-26T23:55:40.054Z,99.90
2017-12-26T23:57:47.142Z,99.90
2017-12-26T23:59:54.453Z,99.90
